sensor_id;sensor_type;location;lat;lon;timestamp;temperature;humidity
69628;DHT22;56850;51.984;5.088;2023-04-07T00:00:26;10.30;78.50
69628;DHT22;56850;51.984;5.088;2023-04-07T00:02:53;10.30;78.50
69628;DHT22;56850;51.984;5.088;2023-04-07T00:05:20;10.30;78.50
69628;DHT22;56850;51.984;5.088;2023-04-07T00:07:47;10.30;78.60
69628;DHT22;56850;51.984;5.088;2023-04-07T00:10:23;10.30;78.40
69628;DHT22;56850;51.984;5.088;2023-04-07T00:12:50;10.30;78.50
69628;DHT22;56850;51.984;5.088;2023-04-07T00:15:17;10.30;78.50
69628;DHT22;56850;51.984;5.088;2023-04-07T00:17:44;10.30;78.50
69628;DHT22;56850;51.984;5.088;2023-04-07T00:20:12;10.30;78.50
69628;DHT22;56850;51.984;5.088;2023-04-07T00:22:44;10.30;78.60
69628;DHT22;56850;51.984;5.088;2023-04-07T00:25:11;10.20;78.60
69628;DHT22;56850;51.984;5.088;2023-04-07T00:27:37;10.20;78.60
69628;DHT22;56850;51.984;5.088;2023-04-07T00:30:05;10.20;78.60
69628;DHT22;56850;51.984;5.088;2023-04-07T00:32:32;10.20;78.60
69628;DHT22;56850;51.984;5.088;2023-04-07T00:35:01;10.20;78.70
69628;DHT22;56850;51.984;5.088;2023-04-07T00:37:28;10.30;78.50
69628;DHT22;56850;51.984;5.088;2023-04-07T00:39:55;10.30;78.50
69628;DHT22;56850;51.984;5.088;2023-04-07T00:42:23;10.30;78.50
69628;DHT22;56850;51.984;5.088;2023-04-07T00:44:50;10.20;78.40
69628;DHT22;56850;51.984;5.088;2023-04-07T00:47:17;10.30;78.50
69628;DHT22;56850;51.984;5.088;2023-04-07T00:49:45;10.30;78.40
69628;DHT22;56850;51.984;5.088;2023-04-07T00:52:13;10.30;78.30
69628;DHT22;56850;51.984;5.088;2023-04-07T00:54:41;10.30;78.20
69628;DHT22;56850;51.984;5.088;2023-04-07T00:57:08;10.30;78.20
69628;DHT22;56850;51.984;5.088;2023-04-07T00:59:35;10.30;78.20
69628;DHT22;56850;51.984;5.088;2023-04-07T01:02:17;10.30;78.20
69628;DHT22;56850;51.984;5.088;2023-04-07T01:04:50;10.30;78.20
69628;DHT22;56850;51.984;5.088;2023-04-07T01:08:05;10.30;78.20
69628;DHT22;56850;51.984;5.088;2023-04-07T01:10:47;10.40;78.00
69628;DHT22;56850;51.984;5.088;2023-04-07T01:13:59;10.40;78.00
69628;DHT22;56850;51.984;5.088;2023-04-07T01:16:41;10.40;78.00
69628;DHT22;56850;51.984;5.088;2023-04-07T01:19:24;10.40;78.00
69628;DHT22;56850;51.984;5.088;2023-04-07T01:21:59;10.30;78.00
69628;DHT22;56850;51.984;5.088;2023-04-07T01:30:11;10.40;78.10
69628;DHT22;56850;51.984;5.088;2023-04-07T01:32:40;10.40;78.10
69628;DHT22;56850;51.984;5.088;2023-04-07T01:35:12;10.40;78.10
69628;DHT22;56850;51.984;5.088;2023-04-07T01:37:40;10.40;78.00
69628;DHT22;56850;51.984;5.088;2023-04-07T01:40:07;10.40;78.10
69628;DHT22;56850;51.984;5.088;2023-04-07T01:42:37;10.40;78.00
69628;DHT22;56850;51.984;5.088;2023-04-07T01:45:06;10.40;78.00
69628;DHT22;56850;51.984;5.088;2023-04-07T01:47:35;10.40;77.90
69628;DHT22;56850;51.984;5.088;2023-04-07T01:50:04;10.40;77.90
69628;DHT22;56850;51.984;5.088;2023-04-07T01:52:34;10.40;77.90
69628;DHT22;56850;51.984;5.088;2023-04-07T01:55:03;10.40;77.80
69628;DHT22;56850;51.984;5.088;2023-04-07T01:57:32;10.40;77.80
69628;DHT22;56850;51.984;5.088;2023-04-07T02:00:05;10.30;77.70
69628;DHT22;56850;51.984;5.088;2023-04-07T02:02:43;10.30;77.80
69628;DHT22;56850;51.984;5.088;2023-04-07T02:05:13;10.30;77.70
69628;DHT22;56850;51.984;5.088;2023-04-07T02:07:57;10.30;77.70
69628;DHT22;56850;51.984;5.088;2023-04-07T02:10:27;10.30;77.70
69628;DHT22;56850;51.984;5.088;2023-04-07T02:12:59;10.30;77.70
69628;DHT22;56850;51.984;5.088;2023-04-07T02:15:27;10.30;77.60
69628;DHT22;56850;51.984;5.088;2023-04-07T02:17:57;10.30;77.50
69628;DHT22;56850;51.984;5.088;2023-04-07T02:20:25;10.20;77.40
69628;DHT22;56850;51.984;5.088;2023-04-07T02:22:52;10.20;77.50
69628;DHT22;56850;51.984;5.088;2023-04-07T02:25:23;10.20;77.50
69628;DHT22;56850;51.984;5.088;2023-04-07T02:27:53;10.20;77.50
69628;DHT22;56850;51.984;5.088;2023-04-07T02:30:21;10.20;77.60
69628;DHT22;56850;51.984;5.088;2023-04-07T02:32:49;10.20;77.60
69628;DHT22;56850;51.984;5.088;2023-04-07T02:35:17;10.20;77.70
69628;DHT22;56850;51.984;5.088;2023-04-07T02:37:45;10.20;77.60
69628;DHT22;56850;51.984;5.088;2023-04-07T02:40:12;10.20;77.80
69628;DHT22;56850;51.984;5.088;2023-04-07T02:42:39;10.20;77.60
69628;DHT22;56850;51.984;5.088;2023-04-07T02:45:07;10.20;77.70
69628;DHT22;56850;51.984;5.088;2023-04-07T02:47:36;10.20;77.60
69628;DHT22;56850;51.984;5.088;2023-04-07T02:50:04;10.20;77.70
69628;DHT22;56850;51.984;5.088;2023-04-07T02:52:34;10.20;77.70
69628;DHT22;56850;51.984;5.088;2023-04-07T02:55:04;10.20;77.60
69628;DHT22;56850;51.984;5.088;2023-04-07T02:57:31;10.20;77.60
69628;DHT22;56850;51.984;5.088;2023-04-07T03:00:01;10.20;77.60
69628;DHT22;56850;51.984;5.088;2023-04-07T03:02:44;10.20;77.70
69628;DHT22;56850;51.984;5.088;2023-04-07T03:05:11;10.20;77.60
69628;DHT22;56850;51.984;5.088;2023-04-07T03:07:38;10.20;77.60
69628;DHT22;56850;51.984;5.088;2023-04-07T03:10:07;10.20;77.60
69628;DHT22;56850;51.984;5.088;2023-04-07T03:12:34;10.20;77.60
69628;DHT22;56850;51.984;5.088;2023-04-07T03:15:01;10.20;77.70
69628;DHT22;56850;51.984;5.088;2023-04-07T03:17:29;10.20;77.60
69628;DHT22;56850;51.984;5.088;2023-04-07T03:19:55;10.20;77.70
69628;DHT22;56850;51.984;5.088;2023-04-07T03:22:24;10.20;77.60
69628;DHT22;56850;51.984;5.088;2023-04-07T03:24:52;10.20;77.70
69628;DHT22;56850;51.984;5.088;2023-04-07T03:27:22;10.10;77.80
69628;DHT22;56850;51.984;5.088;2023-04-07T03:29:49;10.20;77.80
69628;DHT22;56850;51.984;5.088;2023-04-07T03:32:16;10.20;77.80
69628;DHT22;56850;51.984;5.088;2023-04-07T03:34:43;10.20;77.70
69628;DHT22;56850;51.984;5.088;2023-04-07T03:37:12;10.20;77.60
69628;DHT22;56850;51.984;5.088;2023-04-07T03:39:40;10.20;77.50
69628;DHT22;56850;51.984;5.088;2023-04-07T03:42:22;10.20;77.60
69628;DHT22;56850;51.984;5.088;2023-04-07T03:44:53;10.20;77.40
69628;DHT22;56850;51.984;5.088;2023-04-07T03:47:20;10.20;77.40
69628;DHT22;56850;51.984;5.088;2023-04-07T03:49:52;10.20;77.50
69628;DHT22;56850;51.984;5.088;2023-04-07T03:52:20;10.20;77.50
69628;DHT22;56850;51.984;5.088;2023-04-07T03:54:51;10.20;77.50
69628;DHT22;56850;51.984;5.088;2023-04-07T03:57:21;10.20;77.50
69628;DHT22;56850;51.984;5.088;2023-04-07T03:59:50;10.20;77.40
69628;DHT22;56850;51.984;5.088;2023-04-07T04:02:18;10.20;77.40
69628;DHT22;56850;51.984;5.088;2023-04-07T04:04:49;10.20;77.30
69628;DHT22;56850;51.984;5.088;2023-04-07T04:07:17;10.20;77.40
69628;DHT22;56850;51.984;5.088;2023-04-07T04:09:48;10.10;77.40
69628;DHT22;56850;51.984;5.088;2023-04-07T04:12:16;10.20;77.50
69628;DHT22;56850;51.984;5.088;2023-04-07T04:14:59;10.10;77.60
69628;DHT22;56850;51.984;5.088;2023-04-07T04:17:26;10.10;77.60
69628;DHT22;56850;51.984;5.088;2023-04-07T04:19:54;10.10;77.60
69628;DHT22;56850;51.984;5.088;2023-04-07T04:22:37;10.10;77.70
69628;DHT22;56850;51.984;5.088;2023-04-07T04:25:05;10.10;77.80
69628;DHT22;56850;51.984;5.088;2023-04-07T04:27:33;10.10;77.90
69628;DHT22;56850;51.984;5.088;2023-04-07T04:30:05;10.00;78.00
69628;DHT22;56850;51.984;5.088;2023-04-07T04:32:37;10.00;78.10
69628;DHT22;56850;51.984;5.088;2023-04-07T04:35:06;10.00;78.10
69628;DHT22;56850;51.984;5.088;2023-04-07T04:37:40;10.00;78.20
69628;DHT22;56850;51.984;5.088;2023-04-07T04:40:12;10.10;78.20
69628;DHT22;56850;51.984;5.088;2023-04-07T04:42:42;10.10;78.30
69628;DHT22;56850;51.984;5.088;2023-04-07T04:45:11;10.00;78.30
69628;DHT22;56850;51.984;5.088;2023-04-07T04:47:43;10.00;78.20
69628;DHT22;56850;51.984;5.088;2023-04-07T04:50:10;10.00;78.20
69628;DHT22;56850;51.984;5.088;2023-04-07T04:52:39;10.00;78.00
69628;DHT22;56850;51.984;5.088;2023-04-07T04:55:11;10.00;77.90
69628;DHT22;56850;51.984;5.088;2023-04-07T04:57:41;10.00;77.70
69628;DHT22;56850;51.984;5.088;2023-04-07T05:00:11;10.00;77.70
69628;DHT22;56850;51.984;5.088;2023-04-07T05:02:41;10.10;77.60
69628;DHT22;56850;51.984;5.088;2023-04-07T05:05:09;10.10;77.40
69628;DHT22;56850;51.984;5.088;2023-04-07T05:07:36;10.10;77.30
69628;DHT22;56850;51.984;5.088;2023-04-07T05:10:07;10.00;77.30
69628;DHT22;56850;51.984;5.088;2023-04-07T05:12:38;10.00;77.30
69628;DHT22;56850;51.984;5.088;2023-04-07T05:15:05;10.10;77.20
69628;DHT22;56850;51.984;5.088;2023-04-07T05:17:32;10.10;77.10
69628;DHT22;56850;51.984;5.088;2023-04-07T05:20:01;10.10;77.10
69628;DHT22;56850;51.984;5.088;2023-04-07T05:22:36;10.10;77.00
69628;DHT22;56850;51.984;5.088;2023-04-07T05:25:06;10.10;77.10
69628;DHT22;56850;51.984;5.088;2023-04-07T05:27:33;10.20;77.10
69628;DHT22;56850;51.984;5.088;2023-04-07T05:30:07;10.20;76.80
69628;DHT22;56850;51.984;5.088;2023-04-07T05:32:35;10.20;76.80
69628;DHT22;56850;51.984;5.088;2023-04-07T05:35:08;10.20;76.80
69628;DHT22;56850;51.984;5.088;2023-04-07T05:37:40;10.20;76.80
69628;DHT22;56850;51.984;5.088;2023-04-07T05:40:07;10.30;76.80
69628;DHT22;56850;51.984;5.088;2023-04-07T05:42:35;10.30;76.70
69628;DHT22;56850;51.984;5.088;2023-04-07T05:45:03;10.30;76.70
69628;DHT22;56850;51.984;5.088;2023-04-07T05:47:30;10.30;76.60
69628;DHT22;56850;51.984;5.088;2023-04-07T05:49:58;10.30;76.40
69628;DHT22;56850;51.984;5.088;2023-04-07T05:52:26;10.30;76.40
69628;DHT22;56850;51.984;5.088;2023-04-07T05:55:03;10.30;76.30
69628;DHT22;56850;51.984;5.088;2023-04-07T05:57:31;10.30;76.30
69628;DHT22;56850;51.984;5.088;2023-04-07T06:00:01;10.30;76.30
69628;DHT22;56850;51.984;5.088;2023-04-07T06:02:29;10.30;76.30
69628;DHT22;56850;51.984;5.088;2023-04-07T06:04:57;10.30;76.40
69628;DHT22;56850;51.984;5.088;2023-04-07T06:07:24;10.30;76.30
69628;DHT22;56850;51.984;5.088;2023-04-07T06:09:52;10.30;76.30
69628;DHT22;56850;51.984;5.088;2023-04-07T06:12:19;10.30;76.30
69628;DHT22;56850;51.984;5.088;2023-04-07T06:14:53;10.30;76.10
69628;DHT22;56850;51.984;5.088;2023-04-07T06:17:21;10.30;76.10
69628;DHT22;56850;51.984;5.088;2023-04-07T06:19:49;10.30;76.10
69628;DHT22;56850;51.984;5.088;2023-04-07T06:22:16;10.30;76.00
69628;DHT22;56850;51.984;5.088;2023-04-07T06:24:43;10.30;76.00
69628;DHT22;56850;51.984;5.088;2023-04-07T06:27:10;10.30;76.00
69628;DHT22;56850;51.984;5.088;2023-04-07T06:29:37;10.30;76.10
69628;DHT22;56850;51.984;5.088;2023-04-07T06:32:05;10.40;76.10
69628;DHT22;56850;51.984;5.088;2023-04-07T06:34:32;10.40;75.90
69628;DHT22;56850;51.984;5.088;2023-04-07T06:36:59;10.40;75.90
69628;DHT22;56850;51.984;5.088;2023-04-07T06:39:27;10.40;75.90
69628;DHT22;56850;51.984;5.088;2023-04-07T06:41:57;10.50;75.90
69628;DHT22;56850;51.984;5.088;2023-04-07T06:44:27;10.50;75.90
69628;DHT22;56850;51.984;5.088;2023-04-07T06:46:54;10.50;75.90
69628;DHT22;56850;51.984;5.088;2023-04-07T06:49:21;10.50;75.70
69628;DHT22;56850;51.984;5.088;2023-04-07T06:51:48;10.50;75.90
69628;DHT22;56850;51.984;5.088;2023-04-07T06:54:15;10.50;75.90
69628;DHT22;56850;51.984;5.088;2023-04-07T06:56:42;10.50;75.90
69628;DHT22;56850;51.984;5.088;2023-04-07T06:59:09;10.50;75.90
69628;DHT22;56850;51.984;5.088;2023-04-07T07:01:36;10.50;75.80
69628;DHT22;56850;51.984;5.088;2023-04-07T07:04:04;10.60;75.80
69628;DHT22;56850;51.984;5.088;2023-04-07T07:06:34;10.60;75.90
69628;DHT22;56850;51.984;5.088;2023-04-07T07:09:01;10.60;75.80
69628;DHT22;56850;51.984;5.088;2023-04-07T07:11:28;10.60;75.80
69628;DHT22;56850;51.984;5.088;2023-04-07T07:13:56;10.60;75.90
69628;DHT22;56850;51.984;5.088;2023-04-07T07:16:22;10.60;75.90
69628;DHT22;56850;51.984;5.088;2023-04-07T07:18:49;10.60;75.80
69628;DHT22;56850;51.984;5.088;2023-04-07T07:21:17;10.50;75.90
69628;DHT22;56850;51.984;5.088;2023-04-07T07:23:45;10.60;75.90
69628;DHT22;56850;51.984;5.088;2023-04-07T07:26:12;10.60;75.90
69628;DHT22;56850;51.984;5.088;2023-04-07T07:28:39;10.60;76.00
69628;DHT22;56850;51.984;5.088;2023-04-07T07:31:12;10.60;76.00
69628;DHT22;56850;51.984;5.088;2023-04-07T07:33:42;10.60;75.90
69628;DHT22;56850;51.984;5.088;2023-04-07T07:36:11;10.60;75.90
69628;DHT22;56850;51.984;5.088;2023-04-07T07:38:39;10.70;75.80
69628;DHT22;56850;51.984;5.088;2023-04-07T07:41:06;10.70;75.80
69628;DHT22;56850;51.984;5.088;2023-04-07T07:43:33;10.70;75.70
69628;DHT22;56850;51.984;5.088;2023-04-07T07:46:00;10.70;75.80
69628;DHT22;56850;51.984;5.088;2023-04-07T07:48:28;10.60;75.70
69628;DHT22;56850;51.984;5.088;2023-04-07T07:50:54;10.70;75.60
69628;DHT22;56850;51.984;5.088;2023-04-07T07:53:23;10.70;75.60
69628;DHT22;56850;51.984;5.088;2023-04-07T07:55:49;10.70;75.60
69628;DHT22;56850;51.984;5.088;2023-04-07T07:58:16;10.70;75.70
69628;DHT22;56850;51.984;5.088;2023-04-07T08:00:44;10.80;75.60
69628;DHT22;56850;51.984;5.088;2023-04-07T08:03:11;10.70;75.40
69628;DHT22;56850;51.984;5.088;2023-04-07T08:05:38;10.80;75.30
69628;DHT22;56850;51.984;5.088;2023-04-07T08:08:04;10.70;75.30
69628;DHT22;56850;51.984;5.088;2023-04-07T08:10:31;10.70;75.10
69628;DHT22;56850;51.984;5.088;2023-04-07T08:12:58;10.80;75.10
69628;DHT22;56850;51.984;5.088;2023-04-07T08:15:25;10.80;74.90
69628;DHT22;56850;51.984;5.088;2023-04-07T08:17:52;10.80;74.70
69628;DHT22;56850;51.984;5.088;2023-04-07T08:20:21;10.80;74.70
69628;DHT22;56850;51.984;5.088;2023-04-07T08:22:49;10.90;74.60
69628;DHT22;56850;51.984;5.088;2023-04-07T08:25:16;11.00;74.20
69628;DHT22;56850;51.984;5.088;2023-04-07T08:27:43;11.00;74.20
69628;DHT22;56850;51.984;5.088;2023-04-07T08:30:11;11.10;74.00
69628;DHT22;56850;51.984;5.088;2023-04-07T08:32:42;11.00;73.60
69628;DHT22;56850;51.984;5.088;2023-04-07T08:35:10;11.00;73.50
69628;DHT22;56850;51.984;5.088;2023-04-07T08:37:39;11.00;73.50
69628;DHT22;56850;51.984;5.088;2023-04-07T08:40:07;11.00;73.30
69628;DHT22;56850;51.984;5.088;2023-04-07T08:42:34;11.00;73.30
69628;DHT22;56850;51.984;5.088;2023-04-07T08:45:07;11.00;73.40
69628;DHT22;56850;51.984;5.088;2023-04-07T08:47:36;11.10;73.40
69628;DHT22;56850;51.984;5.088;2023-04-07T08:50:08;11.10;73.20
69628;DHT22;56850;51.984;5.088;2023-04-07T08:52:49;11.10;73.20
69628;DHT22;56850;51.984;5.088;2023-04-07T08:55:17;11.10;73.00
69628;DHT22;56850;51.984;5.088;2023-04-07T08:57:45;11.10;72.80
69628;DHT22;56850;51.984;5.088;2023-04-07T09:00:12;11.10;72.70
69628;DHT22;56850;51.984;5.088;2023-04-07T09:02:41;11.10;72.50
69628;DHT22;56850;51.984;5.088;2023-04-07T09:05:11;11.10;72.50
69628;DHT22;56850;51.984;5.088;2023-04-07T09:07:40;11.10;72.20
69628;DHT22;56850;51.984;5.088;2023-04-07T09:10:09;11.00;72.30
69628;DHT22;56850;51.984;5.088;2023-04-07T09:12:36;11.10;72.40
69628;DHT22;56850;51.984;5.088;2023-04-07T09:15:07;11.10;72.40
69628;DHT22;56850;51.984;5.088;2023-04-07T09:17:34;11.20;72.30
69628;DHT22;56850;51.984;5.088;2023-04-07T09:20:02;11.20;72.20
69628;DHT22;56850;51.984;5.088;2023-04-07T09:22:37;11.20;72.20
69628;DHT22;56850;51.984;5.088;2023-04-07T09:25:22;11.20;71.80
69628;DHT22;56850;51.984;5.088;2023-04-07T09:30:23;11.10;71.70
69628;DHT22;56850;51.984;5.088;2023-04-07T09:32:50;11.10;72.00
69628;DHT22;56850;51.984;5.088;2023-04-07T09:35:17;11.10;72.10
69628;DHT22;56850;51.984;5.088;2023-04-07T09:38:09;11.10;72.10
69628;DHT22;56850;51.984;5.088;2023-04-07T09:40:36;11.00;72.40
69628;DHT22;56850;51.984;5.088;2023-04-07T09:43:05;11.10;72.60
69628;DHT22;56850;51.984;5.088;2023-04-07T09:45:32;11.10;72.70
69628;DHT22;56850;51.984;5.088;2023-04-07T09:48:07;11.10;72.50
69628;DHT22;56850;51.984;5.088;2023-04-07T09:50:38;11.10;72.50
69628;DHT22;56850;51.984;5.088;2023-04-07T09:53:05;11.10;72.40
69628;DHT22;56850;51.984;5.088;2023-04-07T09:55:32;11.10;72.50
69628;DHT22;56850;51.984;5.088;2023-04-07T09:58:01;11.10;72.60
69628;DHT22;56850;51.984;5.088;2023-04-07T10:00:29;11.10;72.80
69628;DHT22;56850;51.984;5.088;2023-04-07T10:02:56;11.10;72.90
69628;DHT22;56850;51.984;5.088;2023-04-07T10:05:27;11.10;73.00
69628;DHT22;56850;51.984;5.088;2023-04-07T10:07:54;11.10;73.10
69628;DHT22;56850;51.984;5.088;2023-04-07T10:10:22;11.20;72.80
69628;DHT22;56850;51.984;5.088;2023-04-07T10:12:51;11.20;72.70
69628;DHT22;56850;51.984;5.088;2023-04-07T10:15:19;11.20;72.30
69628;DHT22;56850;51.984;5.088;2023-04-07T10:17:48;11.20;72.20
69628;DHT22;56850;51.984;5.088;2023-04-07T10:20:19;11.30;72.20
69628;DHT22;56850;51.984;5.088;2023-04-07T10:22:50;11.30;71.90
69628;DHT22;56850;51.984;5.088;2023-04-07T10:25:22;11.30;71.70
69628;DHT22;56850;51.984;5.088;2023-04-07T10:28:03;11.30;71.80
69628;DHT22;56850;51.984;5.088;2023-04-07T10:30:32;11.30;72.00
69628;DHT22;56850;51.984;5.088;2023-04-07T10:32:59;11.40;71.80
69628;DHT22;56850;51.984;5.088;2023-04-07T10:35:27;11.40;71.60
69628;DHT22;56850;51.984;5.088;2023-04-07T10:38:08;11.40;71.50
69628;DHT22;56850;51.984;5.088;2023-04-07T10:40:43;11.40;71.40
69628;DHT22;56850;51.984;5.088;2023-04-07T10:43:10;11.40;71.30
69628;DHT22;56850;51.984;5.088;2023-04-07T10:48:26;11.40;71.50
69628;DHT22;56850;51.984;5.088;2023-04-07T10:53:31;11.40;71.50
69628;DHT22;56850;51.984;5.088;2023-04-07T10:55:58;11.40;71.60
69628;DHT22;56850;51.984;5.088;2023-04-07T10:58:33;11.40;71.70
69628;DHT22;56850;51.984;5.088;2023-04-07T11:03:39;11.50;71.80
69628;DHT22;56850;51.984;5.088;2023-04-07T11:06:09;11.50;71.80
69628;DHT22;56850;51.984;5.088;2023-04-07T11:08:39;11.60;71.60
69628;DHT22;56850;51.984;5.088;2023-04-07T11:11:09;11.60;71.20
69628;DHT22;56850;51.984;5.088;2023-04-07T11:13:49;11.50;71.20
69628;DHT22;56850;51.984;5.088;2023-04-07T11:16:19;11.60;71.00
69628;DHT22;56850;51.984;5.088;2023-04-07T11:19:00;11.50;70.90
69628;DHT22;56850;51.984;5.088;2023-04-07T11:21:28;11.50;71.20
69628;DHT22;56850;51.984;5.088;2023-04-07T11:23:56;11.60;71.20
69628;DHT22;56850;51.984;5.088;2023-04-07T11:26:22;11.60;71.00
69628;DHT22;56850;51.984;5.088;2023-04-07T11:28:54;11.60;70.80
69628;DHT22;56850;51.984;5.088;2023-04-07T11:31:25;11.60;70.40
69628;DHT22;56850;51.984;5.088;2023-04-07T11:33:55;11.60;70.30
69628;DHT22;56850;51.984;5.088;2023-04-07T11:36:34;11.60;70.00
69628;DHT22;56850;51.984;5.088;2023-04-07T11:39:02;11.60;70.20
69628;DHT22;56850;51.984;5.088;2023-04-07T11:41:31;11.70;70.30
69628;DHT22;56850;51.984;5.088;2023-04-07T11:44:07;11.80;70.30
69628;DHT22;56850;51.984;5.088;2023-04-07T11:46:34;11.80;70.40
69628;DHT22;56850;51.984;5.088;2023-04-07T11:49:13;11.90;70.30
69628;DHT22;56850;51.984;5.088;2023-04-07T11:51:42;12.00;70.10
69628;DHT22;56850;51.984;5.088;2023-04-07T11:54:12;12.00;69.90
69628;DHT22;56850;51.984;5.088;2023-04-07T11:56:44;12.00;69.40
69628;DHT22;56850;51.984;5.088;2023-04-07T11:59:19;12.00;69.30
69628;DHT22;56850;51.984;5.088;2023-04-07T12:01:49;12.10;69.20
69628;DHT22;56850;51.984;5.088;2023-04-07T12:04:17;12.20;69.20
69628;DHT22;56850;51.984;5.088;2023-04-07T12:06:46;12.30;68.70
69628;DHT22;56850;51.984;5.088;2023-04-07T12:09:33;12.20;68.60
69628;DHT22;56850;51.984;5.088;2023-04-07T12:12:04;12.10;68.60
69628;DHT22;56850;51.984;5.088;2023-04-07T12:14:34;12.10;68.80
69628;DHT22;56850;51.984;5.088;2023-04-07T12:17:02;12.10;69.10
69628;DHT22;56850;51.984;5.088;2023-04-07T12:19:30;12.00;69.10
69628;DHT22;56850;51.984;5.088;2023-04-07T12:22:02;12.00;69.30
69628;DHT22;56850;51.984;5.088;2023-04-07T12:24:29;11.90;69.40
69628;DHT22;56850;51.984;5.088;2023-04-07T12:26:58;11.90;69.80
69628;DHT22;56850;51.984;5.088;2023-04-07T12:29:25;11.90;69.90
69628;DHT22;56850;51.984;5.088;2023-04-07T12:31:52;11.90;70.00
69628;DHT22;56850;51.984;5.088;2023-04-07T12:34:19;11.90;70.10
69628;DHT22;56850;51.984;5.088;2023-04-07T12:36:46;11.90;70.10
69628;DHT22;56850;51.984;5.088;2023-04-07T12:39:15;11.80;70.00
69628;DHT22;56850;51.984;5.088;2023-04-07T12:41:43;11.80;70.00
69628;DHT22;56850;51.984;5.088;2023-04-07T12:44:15;11.80;70.10
69628;DHT22;56850;51.984;5.088;2023-04-07T12:46:42;11.80;70.30
69628;DHT22;56850;51.984;5.088;2023-04-07T12:49:09;11.70;70.50
69628;DHT22;56850;51.984;5.088;2023-04-07T12:51:36;11.70;70.60
69628;DHT22;56850;51.984;5.088;2023-04-07T12:54:05;11.70;70.70
69628;DHT22;56850;51.984;5.088;2023-04-07T12:56:32;11.70;70.70
69628;DHT22;56850;51.984;5.088;2023-04-07T12:58:59;11.70;70.80
69628;DHT22;56850;51.984;5.088;2023-04-07T13:01:26;11.70;70.90
69628;DHT22;56850;51.984;5.088;2023-04-07T13:03:53;11.70;70.90
69628;DHT22;56850;51.984;5.088;2023-04-07T13:06:20;11.80;71.00
69628;DHT22;56850;51.984;5.088;2023-04-07T13:08:47;11.80;71.00
69628;DHT22;56850;51.984;5.088;2023-04-07T13:11:14;11.80;70.80
69628;DHT22;56850;51.984;5.088;2023-04-07T13:13:41;11.70;70.80
69628;DHT22;56850;51.984;5.088;2023-04-07T13:16:08;11.60;71.10
69628;DHT22;56850;51.984;5.088;2023-04-07T13:18:35;11.60;71.20
69628;DHT22;56850;51.984;5.088;2023-04-07T13:21:05;11.60;71.30
69628;DHT22;56850;51.984;5.088;2023-04-07T13:23:52;11.50;71.40
69628;DHT22;56850;51.984;5.088;2023-04-07T13:26:20;11.50;71.30
69628;DHT22;56850;51.984;5.088;2023-04-07T13:28:48;11.50;71.20
69628;DHT22;56850;51.984;5.088;2023-04-07T13:31:15;11.60;71.20
69628;DHT22;56850;51.984;5.088;2023-04-07T13:33:42;11.60;71.10
69628;DHT22;56850;51.984;5.088;2023-04-07T13:36:09;11.60;71.20
69628;DHT22;56850;51.984;5.088;2023-04-07T13:38:36;11.70;71.10
69628;DHT22;56850;51.984;5.088;2023-04-07T13:41:04;11.70;71.10
69628;DHT22;56850;51.984;5.088;2023-04-07T13:43:31;11.70;71.10
69628;DHT22;56850;51.984;5.088;2023-04-07T13:46:00;11.80;71.00
69628;DHT22;56850;51.984;5.088;2023-04-07T13:48:33;11.80;70.90
69628;DHT22;56850;51.984;5.088;2023-04-07T13:51:00;11.80;70.90
69628;DHT22;56850;51.984;5.088;2023-04-07T13:53:29;11.80;70.50
69628;DHT22;56850;51.984;5.088;2023-04-07T13:55:56;11.80;70.40
69628;DHT22;56850;51.984;5.088;2023-04-07T13:58:24;11.80;70.40
69628;DHT22;56850;51.984;5.088;2023-04-07T14:00:50;11.80;70.50
69628;DHT22;56850;51.984;5.088;2023-04-07T14:03:17;11.80;70.60
69628;DHT22;56850;51.984;5.088;2023-04-07T14:05:45;11.80;70.60
69628;DHT22;56850;51.984;5.088;2023-04-07T14:08:11;11.80;70.40
69628;DHT22;56850;51.984;5.088;2023-04-07T14:10:39;11.80;70.40
69628;DHT22;56850;51.984;5.088;2023-04-07T14:13:06;11.80;70.40
69628;DHT22;56850;51.984;5.088;2023-04-07T14:15:33;11.80;70.20
69628;DHT22;56850;51.984;5.088;2023-04-07T14:18:00;11.80;70.30
69628;DHT22;56850;51.984;5.088;2023-04-07T14:20:27;11.80;70.40
69628;DHT22;56850;51.984;5.088;2023-04-07T14:22:55;11.80;70.30
69628;DHT22;56850;51.984;5.088;2023-04-07T14:25:22;11.80;70.10
69628;DHT22;56850;51.984;5.088;2023-04-07T14:27:49;11.80;70.20
69628;DHT22;56850;51.984;5.088;2023-04-07T14:30:17;11.90;70.20
69628;DHT22;56850;51.984;5.088;2023-04-07T14:32:46;11.90;70.10
69628;DHT22;56850;51.984;5.088;2023-04-07T14:35:13;11.80;70.20
69628;DHT22;56850;51.984;5.088;2023-04-07T14:37:41;11.90;70.40
69628;DHT22;56850;51.984;5.088;2023-04-07T14:40:08;11.90;70.20
69628;DHT22;56850;51.984;5.088;2023-04-07T14:42:35;11.90;70.20
69628;DHT22;56850;51.984;5.088;2023-04-07T14:45:02;11.90;70.10
69628;DHT22;56850;51.984;5.088;2023-04-07T14:47:30;11.80;70.30
69628;DHT22;56850;51.984;5.088;2023-04-07T14:49:57;11.90;70.30
69628;DHT22;56850;51.984;5.088;2023-04-07T14:52:24;11.90;70.40
69628;DHT22;56850;51.984;5.088;2023-04-07T14:54:51;11.80;70.00
69628;DHT22;56850;51.984;5.088;2023-04-07T14:57:18;11.80;70.10
69628;DHT22;56850;51.984;5.088;2023-04-07T14:59:46;11.80;70.30
69628;DHT22;56850;51.984;5.088;2023-04-07T15:02:13;11.80;70.30
69628;DHT22;56850;51.984;5.088;2023-04-07T15:04:40;11.80;70.20
69628;DHT22;56850;51.984;5.088;2023-04-07T15:07:07;11.80;70.20
69628;DHT22;56850;51.984;5.088;2023-04-07T15:09:34;11.80;70.20
69628;DHT22;56850;51.984;5.088;2023-04-07T15:12:01;11.80;70.20
69628;DHT22;56850;51.984;5.088;2023-04-07T15:14:28;11.80;70.10
69628;DHT22;56850;51.984;5.088;2023-04-07T15:16:55;11.80;70.10
69628;DHT22;56850;51.984;5.088;2023-04-07T15:19:22;11.80;70.20
69628;DHT22;56850;51.984;5.088;2023-04-07T15:21:49;11.80;70.20
69628;DHT22;56850;51.984;5.088;2023-04-07T15:24:16;11.80;70.30
69628;DHT22;56850;51.984;5.088;2023-04-07T15:26:45;11.80;70.20
69628;DHT22;56850;51.984;5.088;2023-04-07T15:29:12;11.80;70.20
69628;DHT22;56850;51.984;5.088;2023-04-07T15:31:39;11.80;70.30
69628;DHT22;56850;51.984;5.088;2023-04-07T15:34:05;11.80;70.30
69628;DHT22;56850;51.984;5.088;2023-04-07T15:36:33;11.70;70.40
69628;DHT22;56850;51.984;5.088;2023-04-07T15:39:03;11.80;70.40
69628;DHT22;56850;51.984;5.088;2023-04-07T15:41:31;11.70;70.40
69628;DHT22;56850;51.984;5.088;2023-04-07T15:43:59;11.70;70.50
69628;DHT22;56850;51.984;5.088;2023-04-07T15:46:26;11.70;70.60
69628;DHT22;56850;51.984;5.088;2023-04-07T15:48:53;11.70;70.60
69628;DHT22;56850;51.984;5.088;2023-04-07T15:51:20;11.70;70.70
69628;DHT22;56850;51.984;5.088;2023-04-07T15:53:48;11.60;70.80
69628;DHT22;56850;51.984;5.088;2023-04-07T15:56:15;11.60;70.80
69628;DHT22;56850;51.984;5.088;2023-04-07T15:58:42;11.60;71.00